sensor_id;sensor_type;location;lat;lon;timestamp;pressure;altitude;pressure_sealevel;temperature;humidity
69689;BME280;56932;38.402;-96.176;2022-10-31T00:01:31;97313.28;;;22.51;28.23
69689;BME280;56932;38.402;-96.176;2022-10-31T00:03:54;97316.36;;;21.99;28.57
69689;BME280;56932;38.402;-96.176;2022-10-31T00:06:20;97318.48;;;22.10;28.56
69689;BME280;56932;38.402;-96.176;2022-10-31T00:08:45;97319.30;;;22.38;28.48
69689;BME280;56932;38.402;-96.176;2022-10-31T00:11:11;97321.62;;;22.03;28.66
69689;BME280;56932;38.402;-96.176;2022-10-31T00:13:36;97325.25;;;21.52;28.91
69689;BME280;56932;38.402;-96.176;2022-10-31T00:16:01;97326.88;;;22.37;28.02
69689;BME280;56932;38.402;-96.176;2022-10-31T00:18:27;97329.61;;;21.65;29.38
69689;BME280;56932;38.402;-96.176;2022-10-31T00:20:58;97331.60;;;21.51;29.51
69689;BME280;56932;38.402;-96.176;2022-10-31T00:23:18;97331.30;;;21.32;29.97
69689;BME280;56932;38.402;-96.176;2022-10-31T00:25:43;97335.18;;;21.85;29.20
69689;BME280;56932;38.402;-96.176;2022-10-31T00:28:11;97333.57;;;22.33;28.61
69689;BME280;56932;38.402;-96.176;2022-10-31T00:30:34;97338.52;;;22.63;28.11
69689;BME280;56932;38.402;-96.176;2022-10-31T00:33:00;97339.51;;;21.70;29.35
69689;BME280;56932;38.402;-96.176;2022-10-31T00:35:25;97341.89;;;21.50;29.61
69689;BME280;56932;38.402;-96.176;2022-10-31T00:37:52;97342.74;;;21.06;30.06
69689;BME280;56932;38.402;-96.176;2022-10-31T00:40:16;97340.09;;;21.72;29.41
69689;BME280;56932;38.402;-96.176;2022-10-31T00:42:42;97339.05;;;22.14;29.21
69689;BME280;56932;38.402;-96.176;2022-10-31T00:45:08;97338.14;;;22.84;28.21
69689;BME280;56932;38.402;-96.176;2022-10-31T00:47:32;97341.43;;;22.00;28.73
69689;BME280;56932;38.402;-96.176;2022-10-31T00:49:58;97342.54;;;22.00;28.98
69689;BME280;56932;38.402;-96.176;2022-10-31T00:52:23;97342.76;;;22.54;28.46
69689;BME280;56932;38.402;-96.176;2022-10-31T00:54:49;97342.86;;;21.84;28.89
69689;BME280;56932;38.402;-96.176;2022-10-31T00:57:15;97344.50;;;22.38;28.62
69689;BME280;56932;38.402;-96.176;2022-10-31T00:59:40;97348.94;;;21.97;28.87
69689;BME280;56932;38.402;-96.176;2022-10-31T01:02:06;97348.83;;;22.35;28.44
69689;BME280;56932;38.402;-96.176;2022-10-31T01:04:31;97353.14;;;22.00;28.80
69689;BME280;56932;38.402;-96.176;2022-10-31T01:06:57;97357.25;;;21.93;29.13
69689;BME280;56932;38.402;-96.176;2022-10-31T01:09:22;97359.59;;;21.69;29.13
69689;BME280;56932;38.402;-96.176;2022-10-31T01:11:48;97359.10;;;22.30;28.49
69689;BME280;56932;38.402;-96.176;2022-10-31T01:14:13;97361.46;;;22.49;28.33
69689;BME280;56932;38.402;-96.176;2022-10-31T01:16:39;97363.62;;;21.66;28.87
69689;BME280;56932;38.402;-96.176;2022-10-31T01:19:04;97363.75;;;21.54;29.04
69689;BME280;56932;38.402;-96.176;2022-10-31T01:21:30;97364.47;;;21.37;29.47
69689;BME280;56932;38.402;-96.176;2022-10-31T01:23:56;97365.06;;;21.56;29.44
69689;BME280;56932;38.402;-96.176;2022-10-31T01:26:22;97365.32;;;21.71;29.29
69689;BME280;56932;38.402;-96.176;2022-10-31T01:28:48;97364.69;;;21.18;29.93
69689;BME280;56932;38.402;-96.176;2022-10-31T01:31:11;97366.13;;;21.56;29.44
69689;BME280;56932;38.402;-96.176;2022-10-31T01:33:38;97369.04;;;21.44;29.65
69689;BME280;56932;38.402;-96.176;2022-10-31T01:38:27;97365.17;;;21.81;29.20
69689;BME280;56932;38.402;-96.176;2022-10-31T01:40:53;97366.92;;;20.92;30.42
69689;BME280;56932;38.402;-96.176;2022-10-31T01:43:19;97367.42;;;21.75;29.11
69689;BME280;56932;38.402;-96.176;2022-10-31T01:45:48;97368.17;;;22.38;28.64
69689;BME280;56932;38.402;-96.176;2022-10-31T01:48:15;97368.98;;;21.69;29.37
69689;BME280;56932;38.402;-96.176;2022-10-31T01:50:38;97365.19;;;22.46;28.56
69689;BME280;56932;38.402;-96.176;2022-10-31T01:53:02;97365.03;;;21.38;29.39
69689;BME280;56932;38.402;-96.176;2022-10-31T01:55:29;97365.25;;;21.81;28.95
69689;BME280;56932;38.402;-96.176;2022-10-31T01:57:55;97364.29;;;22.22;28.52
69689;BME280;56932;38.402;-96.176;2022-10-31T02:00:18;97364.85;;;21.84;29.14
69689;BME280;56932;38.402;-96.176;2022-10-31T02:02:43;97361.02;;;22.94;27.92
69689;BME280;56932;38.402;-96.176;2022-10-31T02:05:12;97362.71;;;22.12;28.76
69689;BME280;56932;38.402;-96.176;2022-10-31T02:07:38;97359.53;;;22.52;28.15
69689;BME280;56932;38.402;-96.176;2022-10-31T02:10:00;97361.04;;;22.31;28.09
69689;BME280;56932;38.402;-96.176;2022-10-31T02:12:25;97362.34;;;21.90;28.78
69689;BME280;56932;38.402;-96.176;2022-10-31T02:14:50;97360.26;;;22.12;28.72
69689;BME280;56932;38.402;-96.176;2022-10-31T02:17:15;97358.59;;;22.13;28.99
69689;BME280;56932;38.402;-96.176;2022-10-31T02:19:48;97359.71;;;21.82;28.98
69689;BME280;56932;38.402;-96.176;2022-10-31T02:22:12;97357.93;;;22.35;28.49
69689;BME280;56932;38.402;-96.176;2022-10-31T02:24:42;97356.81;;;22.95;27.61
69689;BME280;56932;38.402;-96.176;2022-10-31T02:27:06;97356.06;;;21.60;28.93
69689;BME280;56932;38.402;-96.176;2022-10-31T02:31:53;97357.83;;;21.94;28.97
69689;BME280;56932;38.402;-96.176;2022-10-31T02:34:19;97355.92;;;22.17;28.47
69689;BME280;56932;38.402;-96.176;2022-10-31T02:36:46;97355.25;;;21.93;28.98
69689;BME280;56932;38.402;-96.176;2022-10-31T02:39:12;97353.39;;;21.09;29.91
69689;BME280;56932;38.402;-96.176;2022-10-31T02:41:36;97353.58;;;21.96;28.94
69689;BME280;56932;38.402;-96.176;2022-10-31T02:44:02;97353.31;;;21.75;29.20
69689;BME280;56932;38.402;-96.176;2022-10-31T02:46:27;97353.78;;;21.11;29.80
69689;BME280;56932;38.402;-96.176;2022-10-31T02:48:48;97356.52;;;21.39;29.49
69689;BME280;56932;38.402;-96.176;2022-10-31T02:51:12;97354.93;;;21.10;29.80
69689;BME280;56932;38.402;-96.176;2022-10-31T02:53:38;97356.82;;;21.12;30.08
69689;BME280;56932;38.402;-96.176;2022-10-31T02:56:10;97350.02;;;21.87;29.02
69689;BME280;56932;38.402;-96.176;2022-10-31T02:58:31;97356.70;;;21.50;29.42
69689;BME280;56932;38.402;-96.176;2022-10-31T03:01:09;97352.98;;;22.40;28.44
69689;BME280;56932;38.402;-96.176;2022-10-31T03:03:25;97354.42;;;21.51;29.28
69689;BME280;56932;38.402;-96.176;2022-10-31T03:05:52;97356.75;;;21.59;29.23
69689;BME280;56932;38.402;-96.176;2022-10-31T03:08:18;97353.96;;;21.24;29.77
69689;BME280;56932;38.402;-96.176;2022-10-31T03:10:41;97356.00;;;20.69;30.11
69689;BME280;56932;38.402;-96.176;2022-10-31T03:13:08;97356.56;;;21.61;29.11
69689;BME280;56932;38.402;-96.176;2022-10-31T03:15:30;97359.90;;;21.47;29.33
69689;BME280;56932;38.402;-96.176;2022-10-31T03:17:57;97360.49;;;20.77;30.29
69689;BME280;56932;38.402;-96.176;2022-10-31T03:20:22;97364.44;;;21.53;29.21
69689;BME280;56932;38.402;-96.176;2022-10-31T03:22:44;97367.17;;;22.03;28.92
69689;BME280;56932;38.402;-96.176;2022-10-31T03:25:09;97368.77;;;21.54;29.15
69689;BME280;56932;38.402;-96.176;2022-10-31T03:27:35;97375.13;;;21.34;29.11
69689;BME280;56932;38.402;-96.176;2022-10-31T03:30:02;97380.46;;;21.78;28.90
69689;BME280;56932;38.402;-96.176;2022-10-31T03:32:29;97381.45;;;21.15;29.58
69689;BME280;56932;38.402;-96.176;2022-10-31T03:34:53;97383.39;;;21.72;28.89
69689;BME280;56932;38.402;-96.176;2022-10-31T03:37:18;97382.41;;;21.64;29.23
69689;BME280;56932;38.402;-96.176;2022-10-31T03:39:44;97383.85;;;21.03;29.91
69689;BME280;56932;38.402;-96.176;2022-10-31T03:42:11;97381.88;;;21.22;29.44
69689;BME280;56932;38.402;-96.176;2022-10-31T03:44:34;97379.72;;;21.29;29.35
69689;BME280;56932;38.402;-96.176;2022-10-31T03:46:59;97382.77;;;20.99;29.91
69689;BME280;56932;38.402;-96.176;2022-10-31T03:49:24;97385.07;;;21.14;29.52
69689;BME280;56932;38.402;-96.176;2022-10-31T03:51:54;97388.52;;;20.98;29.70
69689;BME280;56932;38.402;-96.176;2022-10-31T03:54:20;97389.30;;;21.36;29.47
69689;BME280;56932;38.402;-96.176;2022-10-31T03:56:46;97390.55;;;21.55;29.31
69689;BME280;56932;38.402;-96.176;2022-10-31T03:59:09;97392.15;;;21.38;29.17
69689;BME280;56932;38.402;-96.176;2022-10-31T04:01:34;97392.91;;;21.02;29.61
69689;BME280;56932;38.402;-96.176;2022-10-31T04:03:58;97390.37;;;20.90;29.75
69689;BME280;56932;38.402;-96.176;2022-10-31T04:06:23;97387.14;;;21.27;29.35
69689;BME280;56932;38.402;-96.176;2022-10-31T04:08:52;97387.98;;;21.03;29.56
69689;BME280;56932;38.402;-96.176;2022-10-31T04:11:14;97389.09;;;21.37;29.19
69689;BME280;56932;38.402;-96.176;2022-10-31T04:13:39;97387.62;;;21.62;28.91
69689;BME280;56932;38.402;-96.176;2022-10-31T04:16:05;97385.91;;;21.84;28.87
69689;BME280;56932;38.402;-96.176;2022-10-31T04:18:30;97384.46;;;21.79;28.89
69689;BME280;56932;38.402;-96.176;2022-10-31T04:21:00;97380.25;;;20.60;30.25
69689;BME280;56932;38.402;-96.176;2022-10-31T04:23:23;97376.61;;;21.43;29.32
69689;BME280;56932;38.402;-96.176;2022-10-31T04:25:46;97378.12;;;21.01;29.79
69689;BME280;56932;38.402;-96.176;2022-10-31T04:28:12;97372.02;;;20.84;30.31
69689;BME280;56932;38.402;-96.176;2022-10-31T04:30:37;97371.49;;;21.50;29.23
69689;BME280;56932;38.402;-96.176;2022-10-31T04:33:03;97371.17;;;20.91;29.56
69689;BME280;56932;38.402;-96.176;2022-10-31T04:35:28;97367.32;;;20.70;30.07
69689;BME280;56932;38.402;-96.176;2022-10-31T04:37:54;97365.91;;;20.37;30.17
69689;BME280;56932;38.402;-96.176;2022-10-31T04:40:19;97365.60;;;21.38;29.36
69689;BME280;56932;38.402;-96.176;2022-10-31T04:42:45;97364.77;;;20.39;30.42
69689;BME280;56932;38.402;-96.176;2022-10-31T04:45:10;97358.20;;;21.37;29.35
69689;BME280;56932;38.402;-96.176;2022-10-31T04:47:35;97358.74;;;20.68;30.10
69689;BME280;56932;38.402;-96.176;2022-10-31T04:50:02;97358.00;;;20.31;30.39
69689;BME280;56932;38.402;-96.176;2022-10-31T04:52:26;97355.39;;;21.30;29.64
69689;BME280;56932;38.402;-96.176;2022-10-31T04:54:52;97353.69;;;21.29;29.39
69689;BME280;56932;38.402;-96.176;2022-10-31T04:57:18;97353.22;;;20.91;29.79
69689;BME280;56932;38.402;-96.176;2022-10-31T04:59:43;97350.34;;;21.10;29.85
69689;BME280;56932;38.402;-96.176;2022-10-31T05:02:09;97351.91;;;20.98;29.76
69689;BME280;56932;38.402;-96.176;2022-10-31T05:04:34;97351.22;;;20.92;29.78
69689;BME280;56932;38.402;-96.176;2022-10-31T05:07:00;97348.20;;;21.53;29.42
69689;BME280;56932;38.402;-96.176;2022-10-31T05:09:25;97350.27;;;20.42;30.07
69689;BME280;56932;38.402;-96.176;2022-10-31T05:11:51;97349.25;;;21.95;28.65
69689;BME280;56932;38.402;-96.176;2022-10-31T05:14:16;97351.65;;;21.06;29.34
69689;BME280;56932;38.402;-96.176;2022-10-31T05:16:42;97351.58;;;21.33;29.32
69689;BME280;56932;38.402;-96.176;2022-10-31T05:19:07;97349.05;;;20.79;29.90
69689;BME280;56932;38.402;-96.176;2022-10-31T05:21:33;97347.28;;;20.84;29.84
69689;BME280;56932;38.402;-96.176;2022-10-31T05:23:58;97347.07;;;20.77;29.68
69689;BME280;56932;38.402;-96.176;2022-10-31T05:26:24;97344.86;;;20.56;29.95
69689;BME280;56932;38.402;-96.176;2022-10-31T05:28:49;97342.91;;;20.58;30.13
69689;BME280;56932;38.402;-96.176;2022-10-31T05:31:15;97342.05;;;21.41;29.15
69689;BME280;56932;38.402;-96.176;2022-10-31T05:33:41;97337.84;;;20.20;30.25
69689;BME280;56932;38.402;-96.176;2022-10-31T05:36:06;97337.46;;;21.23;29.39
69689;BME280;56932;38.402;-96.176;2022-10-31T05:38:32;97338.37;;;20.94;29.52
69689;BME280;56932;38.402;-96.176;2022-10-31T05:40:57;97334.17;;;20.40;30.36
69689;BME280;56932;38.402;-96.176;2022-10-31T05:43:23;97332.65;;;20.14;30.58
69689;BME280;56932;38.402;-96.176;2022-10-31T05:45:52;97333.66;;;20.53;30.16
69689;BME280;56932;38.402;-96.176;2022-10-31T05:48:14;97333.60;;;21.20;29.41
69689;BME280;56932;38.402;-96.176;2022-10-31T05:50:39;97332.03;;;20.57;30.08
69689;BME280;56932;38.402;-96.176;2022-10-31T05:53:05;97331.73;;;20.72;29.92
69689;BME280;56932;38.402;-96.176;2022-10-31T05:55:31;97330.82;;;21.01;29.58
69689;BME280;56932;38.402;-96.176;2022-10-31T05:57:56;97330.49;;;20.10;30.49
69689;BME280;56932;38.402;-96.176;2022-10-31T06:00:22;97328.17;;;20.32;30.27
69689;BME280;56932;38.402;-96.176;2022-10-31T06:02:47;97327.62;;;20.75;30.15
69689;BME280;56932;38.402;-96.176;2022-10-31T06:05:12;97326.01;;;20.66;29.71
69689;BME280;56932;38.402;-96.176;2022-10-31T06:07:38;97326.22;;;20.00;30.63
69689;BME280;56932;38.402;-96.176;2022-10-31T06:10:06;97325.57;;;21.17;29.38
69689;BME280;56932;38.402;-96.176;2022-10-31T06:12:29;97325.31;;;20.30;30.30
69689;BME280;56932;38.402;-96.176;2022-10-31T06:14:54;97325.44;;;21.61;28.84
69689;BME280;56932;38.402;-96.176;2022-10-31T06:17:20;97326.12;;;20.95;29.55
69689;BME280;56932;38.402;-96.176;2022-10-31T06:19:45;97323.98;;;21.06;29.19
69689;BME280;56932;38.402;-96.176;2022-10-31T06:22:11;97326.06;;;19.78;31.14
69689;BME280;56932;38.402;-96.176;2022-10-31T06:24:36;97331.43;;;20.72;29.77
69689;BME280;56932;38.402;-96.176;2022-10-31T06:27:02;97332.64;;;20.22;30.73
69689;BME280;56932;38.402;-96.176;2022-10-31T06:29:27;97335.19;;;19.88;30.74
69689;BME280;56932;38.402;-96.176;2022-10-31T06:31:53;97337.12;;;21.37;29.40
69689;BME280;56932;38.402;-96.176;2022-10-31T06:34:18;97338.94;;;21.17;29.29
69689;BME280;56932;38.402;-96.176;2022-10-31T06:36:46;97337.50;;;21.30;29.17
69689;BME280;56932;38.402;-96.176;2022-10-31T06:39:09;97330.02;;;19.50;31.15
69689;BME280;56932;38.402;-96.176;2022-10-31T06:41:35;97343.06;;;20.55;29.94
69689;BME280;56932;38.402;-96.176;2022-10-31T06:44:00;97346.14;;;21.76;28.95
69689;BME280;56932;38.402;-96.176;2022-10-31T06:46:26;97346.61;;;20.56;29.95
69689;BME280;56932;38.402;-96.176;2022-10-31T06:48:51;97349.97;;;21.51;29.17
69689;BME280;56932;38.402;-96.176;2022-10-31T06:51:17;97352.68;;;20.48;29.95
69689;BME280;56932;38.402;-96.176;2022-10-31T06:53:42;97354.02;;;21.01;29.70
69689;BME280;56932;38.402;-96.176;2022-10-31T06:56:08;97354.57;;;21.00;29.72
69689;BME280;56932;38.402;-96.176;2022-10-31T06:58:33;97356.08;;;21.14;29.32
69689;BME280;56932;38.402;-96.176;2022-10-31T07:00:59;97354.60;;;20.40;30.06
69689;BME280;56932;38.402;-96.176;2022-10-31T07:03:24;97356.07;;;20.37;30.11
69689;BME280;56932;38.402;-96.176;2022-10-31T07:05:50;97355.77;;;21.00;29.78
69689;BME280;56932;38.402;-96.176;2022-10-31T07:08:15;97358.29;;;20.82;29.97
69689;BME280;56932;38.402;-96.176;2022-10-31T07:10:42;97355.14;;;20.63;29.86
69689;BME280;56932;38.402;-96.176;2022-10-31T07:13:11;97355.19;;;21.32;29.05
69689;BME280;56932;38.402;-96.176;2022-10-31T07:15:35;97356.91;;;20.88;29.51
69689;BME280;56932;38.402;-96.176;2022-10-31T07:18:00;97358.89;;;21.18;29.18
69689;BME280;56932;38.402;-96.176;2022-10-31T07:20:23;97354.92;;;20.76;29.98
69689;BME280;56932;38.402;-96.176;2022-10-31T07:22:49;97355.98;;;21.43;29.24
69689;BME280;56932;38.402;-96.176;2022-10-31T07:25:14;97358.82;;;20.89;29.52
69689;BME280;56932;38.402;-96.176;2022-10-31T07:27:41;97360.87;;;21.06;29.66
69689;BME280;56932;38.402;-96.176;2022-10-31T07:30:07;97359.50;;;21.40;29.26
69689;BME280;56932;38.402;-96.176;2022-10-31T07:32:39;97357.14;;;19.98;30.47
69689;BME280;56932;38.402;-96.176;2022-10-31T07:34:56;97364.30;;;20.92;29.80
69689;BME280;56932;38.402;-96.176;2022-10-31T07:37:22;97366.71;;;20.80;29.62
69689;BME280;56932;38.402;-96.176;2022-10-31T07:39:47;97367.55;;;20.36;30.11
69689;BME280;56932;38.402;-96.176;2022-10-31T07:42:12;97363.94;;;20.90;29.46
69689;BME280;56932;38.402;-96.176;2022-10-31T07:44:38;97363.27;;;20.36;30.01
69689;BME280;56932;38.402;-96.176;2022-10-31T07:47:04;97362.02;;;20.24;30.17
69689;BME280;56932;38.402;-96.176;2022-10-31T07:49:29;97365.29;;;20.73;30.02
69689;BME280;56932;38.402;-96.176;2022-10-31T07:51:55;97371.39;;;20.88;29.23
69689;BME280;56932;38.402;-96.176;2022-10-31T07:54:20;97372.83;;;21.07;29.28
69689;BME280;56932;38.402;-96.176;2022-10-31T07:56:46;97376.65;;;20.41;30.04
69689;BME280;56932;38.402;-96.176;2022-10-31T07:59:11;97374.84;;;21.32;29.02
69689;BME280;56932;38.402;-96.176;2022-10-31T08:01:37;97375.57;;;20.69;29.70
69689;BME280;56932;38.402;-96.176;2022-10-31T08:04:03;97375.71;;;20.86;29.84
69689;BME280;56932;38.402;-96.176;2022-10-31T08:06:28;97374.49;;;20.10;30.65
69689;BME280;56932;38.402;-96.176;2022-10-31T08:08:53;97373.67;;;20.45;30.34
69689;BME280;56932;38.402;-96.176;2022-10-31T08:11:19;97371.09;;;20.52;30.00
69689;BME280;56932;38.402;-96.176;2022-10-31T08:13:44;97375.45;;;20.43;30.01
69689;BME280;56932;38.402;-96.176;2022-10-31T08:16:10;97372.67;;;20.91;29.51
69689;BME280;56932;38.402;-96.176;2022-10-31T08:18:35;97372.62;;;21.25;29.43
69689;BME280;56932;38.402;-96.176;2022-10-31T08:21:01;97372.47;;;21.55;29.03
69689;BME280;56932;38.402;-96.176;2022-10-31T08:23:26;97375.12;;;21.44;28.93
69689;BME280;56932;38.402;-96.176;2022-10-31T08:25:52;97375.10;;;21.07;29.61
69689;BME280;56932;38.402;-96.176;2022-10-31T08:28:18;97377.38;;;21.18;29.53
69689;BME280;56932;38.402;-96.176;2022-10-31T08:30:43;97376.30;;;21.12;29.32
69689;BME280;56932;38.402;-96.176;2022-10-31T08:33:11;97373.00;;;20.17;30.34
69689;BME280;56932;38.402;-96.176;2022-10-31T08:35:34;97378.29;;;20.83;29.97
69689;BME280;56932;38.402;-96.176;2022-10-31T08:38:00;97375.90;;;20.14;30.63
69689;BME280;56932;38.402;-96.176;2022-10-31T08:40:26;97377.03;;;20.86;29.85
69689;BME280;56932;38.402;-96.176;2022-10-31T08:42:56;97373.21;;;20.50;30.23
69689;BME280;56932;38.402;-96.176;2022-10-31T08:45:16;97370.24;;;20.69;29.82
69689;BME280;56932;38.402;-96.176;2022-10-31T08:47:41;97376.95;;;20.76;30.05
69689;BME280;56932;38.402;-96.176;2022-10-31T08:50:07;97375.44;;;20.56;30.18
69689;BME280;56932;38.402;-96.176;2022-10-31T08:52:32;97375.26;;;20.31;30.13
69689;BME280;56932;38.402;-96.176;2022-10-31T08:54:58;97378.48;;;20.57;30.20
69689;BME280;56932;38.402;-96.176;2022-10-31T08:57:23;97377.80;;;20.88;29.56
69689;BME280;56932;38.402;-96.176;2022-10-31T08:59:49;97375.91;;;19.55;31.32
69689;BME280;56932;38.402;-96.176;2022-10-31T09:02:14;97371.75;;;20.46;30.33
69689;BME280;56932;38.402;-96.176;2022-10-31T09:04:40;97373.43;;;21.08;29.62
69689;BME280;56932;38.402;-96.176;2022-10-31T09:07:05;97369.99;;;20.07;30.44
69689;BME280;56932;38.402;-96.176;2022-10-31T09:09:31;97368.05;;;19.73;31.07
69689;BME280;56932;38.402;-96.176;2022-10-31T09:11:57;97372.12;;;20.98;29.43
69689;BME280;56932;38.402;-96.176;2022-10-31T09:14:22;97366.90;;;20.41;30.30
69689;BME280;56932;38.402;-96.176;2022-10-31T09:16:48;97364.72;;;20.41;30.32
69689;BME280;56932;38.402;-96.176;2022-10-31T09:19:13;97363.50;;;20.93;29.68
69689;BME280;56932;38.402;-96.176;2022-10-31T09:21:39;97361.75;;;20.46;29.89
69689;BME280;56932;38.402;-96.176;2022-10-31T09:24:05;97363.53;;;20.60;29.72
69689;BME280;56932;38.402;-96.176;2022-10-31T09:26:29;97361.57;;;20.69;29.60
69689;BME280;56932;38.402;-96.176;2022-10-31T09:28:55;97356.68;;;20.82;29.79
69689;BME280;56932;38.402;-96.176;2022-10-31T09:31:20;97360.49;;;20.49;30.16
69689;BME280;56932;38.402;-96.176;2022-10-31T09:33:46;97354.79;;;20.48;29.86
69689;BME280;56932;38.402;-96.176;2022-10-31T09:36:11;97352.61;;;20.63;29.99
69689;BME280;56932;38.402;-96.176;2022-10-31T09:38:37;97352.14;;;20.75;29.54
69689;BME280;56932;38.402;-96.176;2022-10-31T09:41:11;97351.87;;;21.00;29.55
69689;BME280;56932;38.402;-96.176;2022-10-31T09:43:32;97352.46;;;20.49;29.78
69689;BME280;56932;38.402;-96.176;2022-10-31T09:45:59;97352.57;;;20.15;30.18
69689;BME280;56932;38.402;-96.176;2022-10-31T09:48:30;97353.42;;;20.43;30.20
69689;BME280;56932;38.402;-96.176;2022-10-31T09:50:46;97355.07;;;20.70;29.58
69689;BME280;56932;38.402;-96.176;2022-10-31T09:53:17;97353.08;;;20.68;29.91
69689;BME280;56932;38.402;-96.176;2022-10-31T09:55:40;97349.94;;;20.66;29.79
69689;BME280;56932;38.402;-96.176;2022-10-31T09:58:01;97352.09;;;20.78;29.71
69689;BME280;56932;38.402;-96.176;2022-10-31T10:00:26;97358.20;;;20.54;29.98
69689;BME280;56932;38.402;-96.176;2022-10-31T10:02:56;97360.81;;;21.26;29.19
69689;BME280;56932;38.402;-96.176;2022-10-31T10:05:22;97357.65;;;19.97;30.61
69689;BME280;56932;38.402;-96.176;2022-10-31T10:07:48;97362.59;;;20.37;30.20
69689;BME280;56932;38.402;-96.176;2022-10-31T10:10:14;97366.08;;;20.16;30.12
69689;BME280;56932;38.402;-96.176;2022-10-31T10:12:43;97364.20;;;20.21;29.98
69689;BME280;56932;38.402;-96.176;2022-10-31T10:17:34;97370.36;;;20.38;29.77
69689;BME280;56932;38.402;-96.176;2022-10-31T10:22:19;97373.24;;;20.34;29.63
69689;BME280;56932;38.402;-96.176;2022-10-31T10:24:55;97375.46;;;20.99;29.43
69689;BME280;56932;38.402;-96.176;2022-10-31T10:27:16;97377.65;;;20.00;30.16
69689;BME280;56932;38.402;-96.176;2022-10-31T10:29:37;97382.50;;;20.93;29.18
69689;BME280;56932;38.402;-96.176;2022-10-31T10:32:01;97383.87;;;21.50;28.85
69689;BME280;56932;38.402;-96.176;2022-10-31T10:34:28;97385.57;;;20.77;29.63
69689;BME280;56932;38.402;-96.176;2022-10-31T10:36:51;97388.57;;;20.87;29.55
69689;BME280;56932;38.402;-96.176;2022-10-31T10:39:17;97388.47;;;20.86;29.23
69689;BME280;56932;38.402;-96.176;2022-10-31T10:41:43;97388.87;;;20.57;29.83
69689;BME280;56932;38.402;-96.176;2022-10-31T10:44:09;97392.98;;;20.79;29.56
69689;BME280;56932;38.402;-96.176;2022-10-31T10:46:40;97392.36;;;19.56;30.62
69689;BME280;56932;38.402;-96.176;2022-10-31T10:49:00;97393.54;;;21.10;29.27
69689;BME280;56932;38.402;-96.176;2022-10-31T10:53:56;97398.63;;;20.84;29.50
69689;BME280;56932;38.402;-96.176;2022-10-31T10:56:16;97398.51;;;20.00;30.38
69689;BME280;56932;38.402;-96.176;2022-10-31T10:58:40;97401.23;;;20.84;29.49
69689;BME280;56932;38.402;-96.176;2022-10-31T11:01:10;97403.97;;;20.69;29.64
69689;BME280;56932;38.402;-96.176;2022-10-31T11:03:30;97406.81;;;19.85;30.74
69689;BME280;56932;38.402;-96.176;2022-10-31T11:05:57;97407.05;;;20.64;29.66
69689;BME280;56932;38.402;-96.176;2022-10-31T11:08:24;97410.41;;;21.05;29.73
69689;BME280;56932;38.402;-96.176;2022-10-31T11:13:20;97409.78;;;20.80;29.49
69689;BME280;56932;38.402;-96.176;2022-10-31T11:18:03;97408.52;;;20.75;29.51
69689;BME280;56932;38.402;-96.176;2022-10-31T11:20:31;97410.15;;;20.76;29.51
69689;BME280;56932;38.402;-96.176;2022-10-31T11:23:04;97411.03;;;20.88;29.37
69689;BME280;56932;38.402;-96.176;2022-10-31T11:25:22;97408.26;;;20.63;29.61
69689;BME280;56932;38.402;-96.176;2022-10-31T11:27:45;97403.81;;;20.43;29.86
69689;BME280;56932;38.402;-96.176;2022-10-31T11:30:13;97406.28;;;20.71;29.52
69689;BME280;56932;38.402;-96.176;2022-10-31T11:32:36;97408.99;;;20.10;30.18
69689;BME280;56932;38.402;-96.176;2022-10-31T11:35:08;97410.80;;;20.45;29.81
69689;BME280;56932;38.402;-96.176;2022-10-31T11:37:29;97412.27;;;20.16;30.32
69689;BME280;56932;38.402;-96.176;2022-10-31T11:39:55;97407.31;;;20.06;30.21
69689;BME280;56932;38.402;-96.176;2022-10-31T11:42:18;97412.48;;;21.03;29.13
69689;BME280;56932;38.402;-96.176;2022-10-31T11:44:44;97412.93;;;20.12;29.85
69689;BME280;56932;38.402;-96.176;2022-10-31T11:47:13;97415.89;;;20.11;30.12
69689;BME280;56932;38.402;-96.176;2022-10-31T11:49:37;97418.54;;;19.59;30.75
69689;BME280;56932;38.402;-96.176;2022-10-31T11:52:04;97418.64;;;19.33;30.96
69689;BME280;56932;38.402;-96.176;2022-10-31T11:54:28;97415.45;;;20.48;29.75
69689;BME280;56932;38.402;-96.176;2022-10-31T11:56:51;97418.85;;;20.90;29.24
69689;BME280;56932;38.402;-96.176;2022-10-31T11:59:22;97414.42;;;20.29;29.97
69689;BME280;56932;38.402;-96.176;2022-10-31T12:01:47;97412.61;;;20.22;29.92
69689;BME280;56932;38.402;-96.176;2022-10-31T12:04:09;97415.19;;;20.46;29.72
69689;BME280;56932;38.402;-96.176;2022-10-31T12:06:34;97415.77;;;21.03;29.14
69689;BME280;56932;38.402;-96.176;2022-10-31T12:08:59;97414.59;;;21.15;28.94
69689;BME280;56932;38.402;-96.176;2022-10-31T12:11:36;97411.80;;;21.57;28.52
69689;BME280;56932;38.402;-96.176;2022-10-31T12:13:59;97411.00;;;20.69;29.14
69689;BME280;56932;38.402;-96.176;2022-10-31T12:16:22;97413.48;;;21.26;28.91
69689;BME280;56932;38.402;-96.176;2022-10-31T12:18:52;97413.25;;;21.03;28.79
69689;BME280;56932;38.402;-96.176;2022-10-31T12:21:19;97417.52;;;21.00;28.85
69689;BME280;56932;38.402;-96.176;2022-10-31T12:23:38;97411.56;;;20.30;29.54
69689;BME280;56932;38.402;-96.176;2022-10-31T12:26:07;97415.71;;;21.79;28.25
69689;BME280;56932;38.402;-96.176;2022-10-31T12:28:37;97417.95;;;21.07;29.00
69689;BME280;56932;38.402;-96.176;2022-10-31T12:30:58;97415.32;;;20.49;29.58
69689;BME280;56932;38.402;-96.176;2022-10-31T12:33:27;97425.37;;;21.60;28.08
69689;BME280;56932;38.402;-96.176;2022-10-31T12:35:46;97427.31;;;20.97;29.09
69689;BME280;56932;38.402;-96.176;2022-10-31T12:38:20;97423.34;;;21.25;28.46
69689;BME280;56932;38.402;-96.176;2022-10-31T12:40:41;97428.34;;;21.41;28.23
69689;BME280;56932;38.402;-96.176;2022-10-31T12:43:05;97425.13;;;20.29;29.66
69689;BME280;56932;38.402;-96.176;2022-10-31T12:45:34;97431.89;;;21.72;27.92
69689;BME280;56932;38.402;-96.176;2022-10-31T12:47:58;97431.59;;;20.72;28.95